sensor_id;sensor_type;location;lat;lon;timestamp;pressure;altitude;pressure_sealevel;temperature;humidity
19594;BME280;9944;48.240;16.478;2023-03-19T00:01:30;99759.06;;;6.11;49.51
19594;BME280;9944;48.240;16.478;2023-03-19T00:05:33;99755.44;;;6.02;49.45
19594;BME280;9944;48.240;16.478;2023-03-19T00:09:37;99751.84;;;5.94;50.00
19594;BME280;9944;48.240;16.478;2023-03-19T00:13:41;99737.75;;;5.85;50.44
19594;BME280;9944;48.240;16.478;2023-03-19T00:17:44;99730.66;;;5.78;50.61
19594;BME280;9944;48.240;16.478;2023-03-19T00:21:47;99734.94;;;5.73;50.84
19594;BME280;9944;48.240;16.478;2023-03-19T00:25:52;99734.00;;;5.68;50.74
19594;BME280;9944;48.240;16.478;2023-03-19T00:29:57;99726.94;;;5.62;51.24
19594;BME280;9944;48.240;16.478;2023-03-19T00:34:01;99740.84;;;5.60;51.26
19594;BME280;9944;48.240;16.478;2023-03-19T00:38:04;99738.19;;;5.57;51.14
19594;BME280;9944;48.240;16.478;2023-03-19T00:42:08;99747.78;;;5.56;51.66
19594;BME280;9944;48.240;16.478;2023-03-19T00:46:12;99734.66;;;5.54;52.09
19594;BME280;9944;48.240;16.478;2023-03-19T00:50:17;99739.94;;;5.56;52.01
19594;BME280;9944;48.240;16.478;2023-03-19T00:54:20;99739.06;;;5.56;52.63
19594;BME280;9944;48.240;16.478;2023-03-19T00:58:23;99745.19;;;5.58;52.40
19594;BME280;9944;48.240;16.478;2023-03-19T01:02:28;99742.56;;;5.58;52.60
19594;BME280;9944;48.240;16.478;2023-03-19T01:06:32;99739.06;;;5.56;52.41
19594;BME280;9944;48.240;16.478;2023-03-19T01:10:35;99734.72;;;5.58;52.54
19594;BME280;9944;48.240;16.478;2023-03-19T01:14:38;99736.44;;;5.56;52.93
19594;BME280;9944;48.240;16.478;2023-03-19T01:18:44;99730.34;;;5.58;52.66
19594;BME280;9944;48.240;16.478;2023-03-19T01:22:47;99727.69;;;5.53;53.19
19594;BME280;9944;48.240;16.478;2023-03-19T01:26:50;99729.38;;;5.51;53.15
19594;BME280;9944;48.240;16.478;2023-03-19T01:31:05;99724.13;;;5.48;53.04
19594;BME280;9944;48.240;16.478;2023-03-19T01:35:37;99731.03;;;5.46;53.22
19594;BME280;9944;48.240;16.478;2023-03-19T01:39:40;99723.16;;;5.43;53.34
19594;BME280;9944;48.240;16.478;2023-03-19T01:43:46;99723.94;;;5.39;53.38
19594;BME280;9944;48.240;16.478;2023-03-19T01:48:19;99723.91;;;5.34;53.60
19594;BME280;9944;48.240;16.478;2023-03-19T01:52:35;99725.59;;;5.31;53.54
19594;BME280;9944;48.240;16.478;2023-03-19T01:57:06;99732.47;;;5.26;53.81
19594;BME280;9944;48.240;16.478;2023-03-19T02:01:46;99719.28;;;5.20;53.89
19594;BME280;9944;48.240;16.478;2023-03-19T02:05:54;99721.84;;;5.16;54.35
19594;BME280;9944;48.240;16.478;2023-03-19T02:10:01;99713.94;;;5.12;54.42
19594;BME280;9944;48.240;16.478;2023-03-19T02:14:05;99709.44;;;5.06;54.96
19594;BME280;9944;48.240;16.478;2023-03-19T02:18:11;99706.81;;;5.03;54.55
19594;BME280;9944;48.240;16.478;2023-03-19T02:22:19;99707.50;;;4.93;54.83
19594;BME280;9944;48.240;16.478;2023-03-19T02:26:27;99720.44;;;4.87;55.18
19594;BME280;9944;48.240;16.478;2023-03-19T02:30:36;99715.97;;;4.79;55.25
19594;BME280;9944;48.240;16.478;2023-03-19T02:34:44;99730.72;;;4.76;55.43
19594;BME280;9944;48.240;16.478;2023-03-19T02:38:47;99736.75;;;4.73;55.50
19594;BME280;9944;48.240;16.478;2023-03-19T02:42:52;99735.00;;;4.72;55.70
19594;BME280;9944;48.240;16.478;2023-03-19T02:46:57;99731.50;;;4.70;55.84
19594;BME280;9944;48.240;16.478;2023-03-19T02:51:00;99748.97;;;4.73;55.97
19594;BME280;9944;48.240;16.478;2023-03-19T02:55:04;99739.34;;;4.70;55.90
19594;BME280;9944;48.240;16.478;2023-03-19T02:59:10;99736.66;;;4.67;56.07
19594;BME280;9944;48.240;16.478;2023-03-19T03:03:14;99747.84;;;4.60;56.19
19594;BME280;9944;48.240;16.478;2023-03-19T03:07:18;99743.41;;;4.56;56.51
19594;BME280;9944;48.240;16.478;2023-03-19T03:11:21;99735.53;;;4.54;56.62
19594;BME280;9944;48.240;16.478;2023-03-19T03:15:26;99741.66;;;4.55;56.70
19594;BME280;9944;48.240;16.478;2023-03-19T03:19:30;99750.25;;;4.51;56.58
19594;BME280;9944;48.240;16.478;2023-03-19T03:23:33;99757.13;;;4.46;56.77
19594;BME280;9944;48.240;16.478;2023-03-19T03:27:36;99756.22;;;4.44;57.11
19594;BME280;9944;48.240;16.478;2023-03-19T03:31:41;99759.50;;;4.33;57.42
19594;BME280;9944;48.240;16.478;2023-03-19T03:35:44;99782.19;;;4.34;57.16
19594;BME280;9944;48.240;16.478;2023-03-19T03:39:47;99787.41;;;4.34;57.30
19594;BME280;9944;48.240;16.478;2023-03-19T03:43:52;99795.16;;;4.31;57.56
19594;BME280;9944;48.240;16.478;2023-03-19T03:47:57;99803.81;;;4.27;57.69
19594;BME280;9944;48.240;16.478;2023-03-19T03:52:00;99794.16;;;4.25;58.09
19594;BME280;9944;48.240;16.478;2023-03-19T03:56:04;99803.72;;;4.24;57.92
19594;BME280;9944;48.240;16.478;2023-03-19T04:00:08;99790.59;;;4.21;57.87
19594;BME280;9944;48.240;16.478;2023-03-19T04:04:15;99792.22;;;4.16;58.00
19594;BME280;9944;48.240;16.478;2023-03-19T04:08:19;99784.34;;;4.13;58.09
19594;BME280;9944;48.240;16.478;2023-03-19T04:12:22;99794.63;;;4.07;58.35
19594;BME280;9944;48.240;16.478;2023-03-19T04:16:25;99799.72;;;4.00;58.33
19594;BME280;9944;48.240;16.478;2023-03-19T04:20:31;99812.75;;;3.99;58.44
19594;BME280;9944;48.240;16.478;2023-03-19T04:24:35;99812.63;;;3.94;58.91
19594;BME280;9944;48.240;16.478;2023-03-19T04:28:38;99812.41;;;3.87;58.86
19594;BME280;9944;48.240;16.478;2023-03-19T04:32:42;99797.56;;;3.84;58.83
19594;BME280;9944;48.240;16.478;2023-03-19T04:36:47;99794.13;;;3.85;59.25
19594;BME280;9944;48.240;16.478;2023-03-19T04:40:51;99805.41;;;3.84;58.91
19594;BME280;9944;48.240;16.478;2023-03-19T04:44:55;99811.38;;;3.78;59.11
19594;BME280;9944;48.240;16.478;2023-03-19T04:48:58;99808.63;;;3.74;59.28
19594;BME280;9944;48.240;16.478;2023-03-19T04:53:05;99811.25;;;3.74;59.36
19594;BME280;9944;48.240;16.478;2023-03-19T04:57:10;99813.03;;;3.75;59.44
19594;BME280;9944;48.240;16.478;2023-03-19T05:01:15;99798.19;;;3.74;59.35
19594;BME280;9944;48.240;16.478;2023-03-19T05:05:32;99809.34;;;3.66;59.34
19594;BME280;9944;48.240;16.478;2023-03-19T05:09:41;99808.38;;;3.63;59.60
19594;BME280;9944;48.240;16.478;2023-03-19T05:13:47;99797.00;;;3.59;60.29
19594;BME280;9944;48.240;16.478;2023-03-19T05:17:51;99809.19;;;3.60;59.65
19594;BME280;9944;48.240;16.478;2023-03-19T05:22:03;99809.13;;;3.57;59.64
19594;BME280;9944;48.240;16.478;2023-03-19T05:26:08;99799.53;;;3.56;59.82
19594;BME280;9944;48.240;16.478;2023-03-19T05:30:47;99794.13;;;3.49;60.13
19594;BME280;9944;48.240;16.478;2023-03-19T05:34:55;99798.53;;;3.51;60.08
19594;BME280;9944;48.240;16.478;2023-03-19T05:38:59;99812.41;;;3.50;59.91
19594;BME280;9944;48.240;16.478;2023-03-19T05:43:10;99815.91;;;3.51;60.02
19594;BME280;9944;48.240;16.478;2023-03-19T05:47:14;99802.97;;;3.55;60.15
19594;BME280;9944;48.240;16.478;2023-03-19T05:51:24;99805.75;;;3.61;60.22
19594;BME280;9944;48.240;16.478;2023-03-19T05:55:27;99823.97;;;3.60;59.84
19594;BME280;9944;48.240;16.478;2023-03-19T05:59:38;99818.72;;;3.58;60.45
19594;BME280;9944;48.240;16.478;2023-03-19T06:04:13;99824.97;;;3.65;60.55
19594;BME280;9944;48.240;16.478;2023-03-19T06:08:17;99844.16;;;3.67;60.64
19594;BME280;9944;48.240;16.478;2023-03-19T06:12:31;99838.28;;;3.76;60.50
19594;BME280;9944;48.240;16.478;2023-03-19T06:17:07;99836.63;;;3.79;60.55
19594;BME280;9944;48.240;16.478;2023-03-19T06:21:11;99839.34;;;3.84;60.52
19594;BME280;9944;48.240;16.478;2023-03-19T06:25:15;99853.47;;;3.92;60.76
19594;BME280;9944;48.240;16.478;2023-03-19T06:29:18;99854.56;;;4.00;60.51
19594;BME280;9944;48.240;16.478;2023-03-19T06:33:29;99854.00;;;4.14;60.48
19594;BME280;9944;48.240;16.478;2023-03-19T06:37:34;99853.22;;;4.18;60.48
19594;BME280;9944;48.240;16.478;2023-03-19T06:41:39;99859.50;;;4.26;60.33
19594;BME280;9944;48.240;16.478;2023-03-19T06:45:47;99852.81;;;4.37;60.35
19594;BME280;9944;48.240;16.478;2023-03-19T06:49:52;99854.75;;;4.46;60.34
19594;BME280;9944;48.240;16.478;2023-03-19T06:53:55;99865.47;;;4.58;60.43
19594;BME280;9944;48.240;16.478;2023-03-19T06:57:59;99870.00;;;4.67;60.17
19594;BME280;9944;48.240;16.478;2023-03-19T07:02:02;99864.00;;;4.73;60.07
19594;BME280;9944;48.240;16.478;2023-03-19T07:06:07;99879.91;;;4.84;60.20
19594;BME280;9944;48.240;16.478;2023-03-19T07:10:10;99873.97;;;4.91;60.06
19594;BME280;9944;48.240;16.478;2023-03-19T07:14:14;99872.47;;;5.02;59.81
19594;BME280;9944;48.240;16.478;2023-03-19T07:18:17;99854.41;;;5.16;59.74
19594;BME280;9944;48.240;16.478;2023-03-19T07:22:21;99852.84;;;5.27;59.38
19594;BME280;9944;48.240;16.478;2023-03-19T07:26:24;99860.94;;;5.38;59.38
19594;BME280;9944;48.240;16.478;2023-03-19T07:30:28;99869.91;;;5.52;59.16
19594;BME280;9944;48.240;16.478;2023-03-19T07:34:31;99881.56;;;5.70;58.99
19594;BME280;9944;48.240;16.478;2023-03-19T07:38:36;99892.38;;;5.88;58.43
19594;BME280;9944;48.240;16.478;2023-03-19T07:42:39;99897.75;;;5.98;58.27
19594;BME280;9944;48.240;16.478;2023-03-19T07:46:46;99897.13;;;6.13;58.12
19594;BME280;9944;48.240;16.478;2023-03-19T07:50:49;99891.16;;;6.21;57.60
19594;BME280;9944;48.240;16.478;2023-03-19T07:54:55;99900.03;;;6.33;57.46
19594;BME280;9944;48.240;16.478;2023-03-19T07:58:58;99894.13;;;6.44;57.24
19594;BME280;9944;48.240;16.478;2023-03-19T08:03:01;99905.66;;;6.54;57.02
19594;BME280;9944;48.240;16.478;2023-03-19T08:07:04;99912.75;;;6.61;56.99
19594;BME280;9944;48.240;16.478;2023-03-19T08:11:09;99914.59;;;6.70;56.69
19594;BME280;9944;48.240;16.478;2023-03-19T08:15:12;99900.81;;;6.86;56.50
19594;BME280;9944;48.240;16.478;2023-03-19T08:19:15;99900.16;;;7.03;56.51
19594;BME280;9944;48.240;16.478;2023-03-19T08:23:19;99898.63;;;7.20;56.48
19594;BME280;9944;48.240;16.478;2023-03-19T08:27:24;99905.91;;;7.45;56.20
19594;BME280;9944;48.240;16.478;2023-03-19T08:31:27;99914.81;;;7.60;55.65
19594;BME280;9944;48.240;16.478;2023-03-19T08:35:31;99900.88;;;7.68;55.13
19594;BME280;9944;48.240;16.478;2023-03-19T08:39:34;99910.63;;;7.79;55.12
19594;BME280;9944;48.240;16.478;2023-03-19T08:43:38;99917.72;;;7.90;54.59
19594;BME280;9944;48.240;16.478;2023-03-19T08:47:42;99897.59;;;7.93;54.21
19594;BME280;9944;48.240;16.478;2023-03-19T08:51:45;99888.03;;;8.00;54.38
19594;BME280;9944;48.240;16.478;2023-03-19T08:55:52;99895.09;;;8.07;53.54
19594;BME280;9944;48.240;16.478;2023-03-19T08:59:57;99894.28;;;8.17;53.38
19594;BME280;9944;48.240;16.478;2023-03-19T09:04:00;99894.38;;;8.28;53.67
19594;BME280;9944;48.240;16.478;2023-03-19T09:08:03;99895.34;;;8.41;53.16
19594;BME280;9944;48.240;16.478;2023-03-19T09:12:07;99879.66;;;8.57;53.02
19594;BME280;9944;48.240;16.478;2023-03-19T09:16:12;99892.88;;;8.64;52.90
19594;BME280;9944;48.240;16.478;2023-03-19T09:20:15;99902.56;;;8.76;52.73
19594;BME280;9944;48.240;16.478;2023-03-19T09:24:19;99900.81;;;8.75;51.91
19594;BME280;9944;48.240;16.478;2023-03-19T09:28:22;99901.72;;;8.85;52.37
19594;BME280;9944;48.240;16.478;2023-03-19T09:32:27;99909.69;;;8.99;52.29
19594;BME280;9944;48.240;16.478;2023-03-19T09:36:30;99902.75;;;9.13;51.94
19594;BME280;9944;48.240;16.478;2023-03-19T09:40:37;99908.03;;;9.22;51.45
19594;BME280;9944;48.240;16.478;2023-03-19T09:44:42;99907.19;;;9.28;51.37
19594;BME280;9944;48.240;16.478;2023-03-19T09:48:52;99890.53;;;9.37;51.47
19594;BME280;9944;48.240;16.478;2023-03-19T09:53:01;99892.31;;;9.48;50.78
19594;BME280;9944;48.240;16.478;2023-03-19T09:57:08;99873.00;;;9.51;50.56
19594;BME280;9944;48.240;16.478;2023-03-19T10:01:23;99877.41;;;9.58;50.76
19594;BME280;9944;48.240;16.478;2023-03-19T10:05:37;99880.06;;;9.71;50.42
19594;BME280;9944;48.240;16.478;2023-03-19T10:09:53;99870.41;;;9.90;50.19
19594;BME280;9944;48.240;16.478;2023-03-19T10:14:11;99879.22;;;9.98;50.22
19594;BME280;9944;48.240;16.478;2023-03-19T10:18:22;99878.31;;;10.10;50.18
19594;BME280;9944;48.240;16.478;2023-03-19T10:22:33;99879.19;;;10.30;50.25
19594;BME280;9944;48.240;16.478;2023-03-19T10:26:37;99876.50;;;10.55;49.79
19594;BME280;9944;48.240;16.478;2023-03-19T10:30:43;99865.94;;;10.56;49.10
19594;BME280;9944;48.240;16.478;2023-03-19T10:34:50;99861.53;;;10.66;48.70
19594;BME280;9944;48.240;16.478;2023-03-19T10:38:56;99859.75;;;10.65;47.99
19594;BME280;9944;48.240;16.478;2023-03-19T10:43:05;99871.22;;;10.61;48.24
19594;BME280;9944;48.240;16.478;2023-03-19T10:47:16;99865.94;;;10.64;48.51
19594;BME280;9944;48.240;16.478;2023-03-19T10:51:23;99872.91;;;10.84;48.17
19594;BME280;9944;48.240;16.478;2023-03-19T10:55:30;99865.84;;;10.92;47.83
19594;BME280;9944;48.240;16.478;2023-03-19T10:59:36;99864.94;;;10.91;48.10
19594;BME280;9944;48.240;16.478;2023-03-19T11:03:49;99862.28;;;10.99;47.82
19594;BME280;9944;48.240;16.478;2023-03-19T11:07:58;99858.72;;;11.06;47.97
19594;BME280;9944;48.240;16.478;2023-03-19T11:12:13;99851.66;;;11.14;47.82
19594;BME280;9944;48.240;16.478;2023-03-19T11:16:18;99842.84;;;11.12;47.64
19594;BME280;9944;48.240;16.478;2023-03-19T11:20:25;99846.31;;;11.17;47.76
19594;BME280;9944;48.240;16.478;2023-03-19T11:24:32;99855.94;;;11.29;47.38
19594;BME280;9944;48.240;16.478;2023-03-19T11:28:41;99851.53;;;11.41;47.34
19594;BME280;9944;48.240;16.478;2023-03-19T11:37:27;99842.59;;;11.54;46.45
19594;BME280;9944;48.240;16.478;2023-03-19T11:41:45;99838.22;;;11.56;46.27
19594;BME280;9944;48.240;16.478;2023-03-19T11:45:59;99826.69;;;11.65;46.30
19594;BME280;9944;48.240;16.478;2023-03-19T11:50:14;99824.81;;;11.79;46.14
19594;BME280;9944;48.240;16.478;2023-03-19T11:54:24;99826.47;;;11.89;46.28
19594;BME280;9944;48.240;16.478;2023-03-19T11:58:52;99820.22;;;11.98;45.90
19594;BME280;9944;48.240;16.478;2023-03-19T12:07:43;99807.75;;;12.09;46.13
19594;BME280;9944;48.240;16.478;2023-03-19T12:11:52;99794.44;;;12.20;45.73
19594;BME280;9944;48.240;16.478;2023-03-19T12:16:01;99796.19;;;12.20;45.26
19594;BME280;9944;48.240;16.478;2023-03-19T12:20:31;99800.63;;;12.19;45.43
19594;BME280;9944;48.240;16.478;2023-03-19T12:24:53;99796.19;;;12.18;45.09
19594;BME280;9944;48.240;16.478;2023-03-19T12:29:04;99802.41;;;12.16;45.12
19594;BME280;9944;48.240;16.478;2023-03-19T12:33:23;99792.69;;;12.16;45.06
19594;BME280;9944;48.240;16.478;2023-03-19T12:37:36;99781.22;;;12.19;45.00
19594;BME280;9944;48.240;16.478;2023-03-19T12:41:42;99774.97;;;12.24;44.39
19594;BME280;9944;48.240;16.478;2023-03-19T12:45:49;99774.94;;;12.30;44.88
19594;BME280;9944;48.240;16.478;2023-03-19T12:49:57;99766.97;;;12.30;44.80
19594;BME280;9944;48.240;16.478;2023-03-19T12:54:09;99776.63;;;12.35;45.01
19594;BME280;9944;48.240;16.478;2023-03-19T12:58:18;99765.97;;;12.41;44.74
19594;BME280;9944;48.240;16.478;2023-03-19T13:02:27;99762.38;;;12.48;44.19
19594;BME280;9944;48.240;16.478;2023-03-19T13:06:34;99759.63;;;12.53;44.49
19594;BME280;9944;48.240;16.478;2023-03-19T13:10:40;99761.31;;;12.63;44.08
19594;BME280;9944;48.240;16.478;2023-03-19T13:14:48;99747.22;;;12.61;43.85
19594;BME280;9944;48.240;16.478;2023-03-19T13:19:01;99745.41;;;12.63;44.13
19594;BME280;9944;48.240;16.478;2023-03-19T13:23:08;99746.25;;;12.66;44.24
19594;BME280;9944;48.240;16.478;2023-03-19T13:27:19;99743.53;;;12.73;44.14
19594;BME280;9944;48.240;16.478;2023-03-19T13:31:24;99741.69;;;12.79;44.01
19594;BME280;9944;48.240;16.478;2023-03-19T13:35:34;99741.59;;;12.85;44.26
19594;BME280;9944;48.240;16.478;2023-03-19T13:39:40;99729.97;;;12.94;44.24
19594;BME280;9944;48.240;16.478;2023-03-19T13:43:53;99731.75;;;12.95;43.59
19594;BME280;9944;48.240;16.478;2023-03-19T13:47:57;99738.84;;;12.93;44.13
19594;BME280;9944;48.240;16.478;2023-03-19T13:52:41;99738.78;;;12.96;43.78
19594;BME280;9944;48.240;16.478;2023-03-19T13:57:03;99735.25;;;12.97;43.25
19594;BME280;9944;48.240;16.478;2023-03-19T14:01:11;99726.53;;;12.89;43.06
19594;BME280;9944;48.240;16.478;2023-03-19T14:05:35;99717.72;;;12.87;43.54
19594;BME280;9944;48.240;16.478;2023-03-19T14:09:40;99719.41;;;12.91;43.36
19594;BME280;9944;48.240;16.478;2023-03-19T14:13:47;99709.69;;;12.93;43.60
19594;BME280;9944;48.240;16.478;2023-03-19T14:17:58;99714.09;;;12.93;43.49
19594;BME280;9944;48.240;16.478;2023-03-19T14:22:15;99709.59;;;12.98;43.50
19594;BME280;9944;48.240;16.478;2023-03-19T14:26:23;99701.63;;;12.99;43.66
19594;BME280;9944;48.240;16.478;2023-03-19T14:30:32;99698.06;;;13.03;43.61
19594;BME280;9944;48.240;16.478;2023-03-19T14:34:39;99693.56;;;13.09;43.55
19594;BME280;9944;48.240;16.478;2023-03-19T14:38:48;99690.81;;;13.15;43.31
19594;BME280;9944;48.240;16.478;2023-03-19T14:42:57;99696.06;;;13.18;43.40
19594;BME280;9944;48.240;16.478;2023-03-19T14:47:14;99692.50;;;13.19;43.35
19594;BME280;9944;48.240;16.478;2023-03-19T14:51:53;99690.66;;;13.24;43.45
19594;BME280;9944;48.240;16.478;2023-03-19T14:56:02;99704.75;;;13.28;42.91
19594;BME280;9944;48.240;16.478;2023-03-19T15:00:13;99696.72;;;13.32;42.88
19594;BME280;9944;48.240;16.478;2023-03-19T15:04:20;99694.06;;;13.32;42.66
19594;BME280;9944;48.240;16.478;2023-03-19T15:14:19;99690.50;;;13.33;42.44
19594;BME280;9944;48.240;16.478;2023-03-19T15:18:27;99689.56;;;13.37;42.64
19594;BME280;9944;48.240;16.478;2023-03-19T15:22:31;99696.63;;;13.38;42.66
19594;BME280;9944;48.240;16.478;2023-03-19T15:26:35;99688.66;;;13.38;42.37
19594;BME280;9944;48.240;16.478;2023-03-19T15:30:42;99692.16;;;13.40;42.37
19594;BME280;9944;48.240;16.478;2023-03-19T15:35:00;99702.81;;;13.37;42.88
19594;BME280;9944;48.240;16.478;2023-03-19T15:39:06;99708.16;;;13.34;42.55
19594;BME280;9944;48.240;16.478;2023-03-19T15:43:11;99701.16;;;13.30;42.75
19594;BME280;9944;48.240;16.478;2023-03-19T15:47:19;99701.22;;;13.27;42.74
19594;BME280;9944;48.240;16.478;2023-03-19T15:51:24;99710.94;;;13.28;42.89
19594;BME280;9944;48.240;16.478;2023-03-19T15:55:28;99699.44;;;13.28;42.79
19594;BME280;9944;48.240;16.478;2023-03-19T15:59:31;99704.78;;;13.26;42.75
19594;BME280;9944;48.240;16.478;2023-03-19T16:03:39;99717.13;;;13.27;43.01
19594;BME280;9944;48.240;16.478;2023-03-19T16:07:43;99720.56;;;13.32;43.44
19594;BME280;9944;48.240;16.478;2023-03-19T16:11:46;99716.97;;;13.36;43.53
19594;BME280;9944;48.240;16.478;2023-03-19T16:15:54;99733.66;;;13.41;43.53
19594;BME280;9944;48.240;16.478;2023-03-19T16:20:01;99723.00;;;13.44;43.33
19594;BME280;9944;48.240;16.478;2023-03-19T16:24:12;99729.16;;;13.47;43.37
19594;BME280;9944;48.240;16.478;2023-03-19T16:28:18;99723.84;;;13.47;43.48
19594;BME280;9944;48.240;16.478;2023-03-19T16:32:25;99730.97;;;13.44;43.30
19594;BME280;9944;48.240;16.478;2023-03-19T16:36:31;99734.53;;;13.43;43.74
19594;BME280;9944;48.240;16.478;2023-03-19T16:40:45;99734.59;;;13.40;43.63
19594;BME280;9944;48.240;16.478;2023-03-19T16:44:48;99739.94;;;13.37;44.03
19594;BME280;9944;48.240;16.478;2023-03-19T16:48:51;99733.81;;;13.34;43.91
19594;BME280;9944;48.240;16.478;2023-03-19T16:52:56;99742.75;;;13.28;44.08
19594;BME280;9944;48.240;16.478;2023-03-19T16:57:00;99747.28;;;13.20;43.93
19594;BME280;9944;48.240;16.478;2023-03-19T17:01:06;99752.69;;;13.14;43.76
19594;BME280;9944;48.240;16.478;2023-03-19T17:05:15;99747.53;;;13.01;43.89
19594;BME280;9944;48.240;16.478;2023-03-19T17:09:19;99758.25;;;12.95;44.04
19594;BME280;9944;48.240;16.478;2023-03-19T17:13:26;99769.75;;;12.91;44.41
19594;BME280;9944;48.240;16.478;2023-03-19T17:17:31;99764.59;;;12.82;44.32
19594;BME280;9944;48.240;16.478;2023-03-19T17:21:34;99769.19;;;12.71;44.47
19594;BME280;9944;48.240;16.478;2023-03-19T17:25:39;99763.13;;;12.59;44.48
19594;BME280;9944;48.240;16.478;2023-03-19T17:29:42;99768.50;;;12.52;44.68
19594;BME280;9944;48.240;16.478;2023-03-19T17:33:45;99769.50;;;12.43;45.18
19594;BME280;9944;48.240;16.478;2023-03-19T17:37:49;99772.19;;;12.38;45.62
19594;BME280;9944;48.240;16.478;2023-03-19T17:41:55;99772.28;;;12.29;46.03
19594;BME280;9944;48.240;16.478;2023-03-19T17:45:58;99773.28;;;12.20;46.46
19594;BME280;9944;48.240;16.478;2023-03-19T17:50:01;99770.78;;;12.06;46.43
19594;BME280;9944;48.240;16.478;2023-03-19T17:54:08;99765.56;;;11.97;46.56
19594;BME280;9944;48.240;16.478;2023-03-19T17:58:15;99772.66;;;11.92;46.74
19594;BME280;9944;48.240;16.478;2023-03-19T18:02:23;99783.31;;;11.87;47.04
19594;BME280;9944;48.240;16.478;2023-03-19T18:06:31;99783.34;;;11.81;46.97
19594;BME280;9944;48.240;16.478;2023-03-19T18:10:35;99779.84;;;11.76;47.20
19594;BME280;9944;48.240;16.478;2023-03-19T18:14:39;99769.34;;;11.70;47.66
19594;BME280;9944;48.240;16.478;2023-03-19T18:18:42;99781.72;;;11.66;48.00
19594;BME280;9944;48.240;16.478;2023-03-19T18:22:45;99770.31;;;11.60;47.96
19594;BME280;9944;48.240;16.478;2023-03-19T18:26:49;99773.06;;;11.49;47.72
19594;BME280;9944;48.240;16.478;2023-03-19T18:30:53;99773.09;;;11.40;47.93
19594;BME280;9944;48.240;16.478;2023-03-19T18:34:56;99764.34;;;11.30;47.82
19594;BME280;9944;48.240;16.478;2023-03-19T18:39:00;99771.44;;;11.22;47.81
19594;BME280;9944;48.240;16.478;2023-03-19T18:43:03;99782.06;;;11.15;47.91
19594;BME280;9944;48.240;16.478;2023-03-19T18:47:12;99789.19;;;11.03;49.50
19594;BME280;9944;48.240;16.478;2023-03-19T18:51:15;99789.25;;;10.89;50.37
19594;BME280;9944;48.240;16.478;2023-03-19T18:55:20;99785.75;;;10.82;50.87
19594;BME280;9944;48.240;16.478;2023-03-19T18:59:26;99789.34;;;10.73;50.96
19594;BME280;9944;48.240;16.478;2023-03-19T19:03:35;99793.75;;;10.68;50.97
19594;BME280;9944;48.240;16.478;2023-03-19T19:07:38;99793.75;;;10.68;51.26
19594;BME280;9944;48.240;16.478;2023-03-19T19:11:43;99791.13;;;10.68;51.35
19594;BME280;9944;48.240;16.478;2023-03-19T19:15:48;99798.16;;;10.66;51.81
19594;BME280;9944;48.240;16.478;2023-03-19T19:19:53;99793.75;;;10.65;51.87
19594;BME280;9944;48.240;16.478;2023-03-19T19:23:56;99799.94;;;10.64;51.57
19594;BME280;9944;48.240;16.478;2023-03-19T19:28:00;99795.56;;;10.57;51.63
19594;BME280;9944;48.240;16.478;2023-03-19T19:32:08;99804.38;;;10.53;51.95
19594;BME280;9944;48.240;16.478;2023-03-19T19:36:22;99803.50;;;10.46;51.92
19594;BME280;9944;48.240;16.478;2023-03-19T19:40:27;99805.28;;;10.46;52.04
19594;BME280;9944;48.240;16.478;2023-03-19T19:44:31;99809.69;;;10.40;52.02
19594;BME280;9944;48.240;16.478;2023-03-19T19:48:34;99811.47;;;10.38;52.11
19594;BME280;9944;48.240;16.478;2023-03-19T19:52:39;99808.81;;;10.35;52.32
19594;BME280;9944;48.240;16.478;2023-03-19T19:56:42;99808.81;;;10.31;52.34
19594;BME280;9944;48.240;16.478;2023-03-19T20:00:45;99816.78;;;10.24;52.19
19594;BME280;9944;48.240;16.478;2023-03-19T20:05:04;99816.75;;;10.20;51.80
19594;BME280;9944;48.240;16.478;2023-03-19T20:09:09;99810.63;;;10.15;51.86
19594;BME280;9944;48.240;16.478;2023-03-19T20:13:20;99820.28;;;10.10;52.23
19594;BME280;9944;48.240;16.478;2023-03-19T20:17:25;99817.69;;;10.02;51.80
19594;BME280;9944;48.240;16.478;2023-03-19T20:21:29;99808.03;;;9.96;51.59
19594;BME280;9944;48.240;16.478;2023-03-19T20:25:34;99819.44;;;9.91;51.76
19594;BME280;9944;48.240;16.478;2023-03-19T20:29:39;99823.81;;;9.87;51.96
19594;BME280;9944;48.240;16.478;2023-03-19T20:33:42;99822.06;;;9.80;51.93
19594;BME280;9944;48.240;16.478;2023-03-19T20:37:45;99818.53;;;9.75;52.02
19594;BME280;9944;48.240;16.478;2023-03-19T20:41:52;99820.28;;;9.69;52.18
19594;BME280;9944;48.240;16.478;2023-03-19T20:45:56;99826.44;;;9.64;52.47
19594;BME280;9944;48.240;16.478;2023-03-19T20:50:00;99825.56;;;9.57;52.74
19594;BME280;9944;48.240;16.478;2023-03-19T20:54:03;99817.66;;;9.51;52.83
19594;BME280;9944;48.240;16.478;2023-03-19T20:58:14;99828.19;;;9.45;53.02
19594;BME280;9944;48.240;16.478;2023-03-19T21:02:19;99832.56;;;9.40;52.98
19594;BME280;9944;48.240;16.478;2023-03-19T21:06:23;99833.47;;;9.36;52.87
19594;BME280;9944;48.240;16.478;2023-03-19T21:10:30;99827.28;;;9.27;53.19
19594;BME280;9944;48.240;16.478;2023-03-19T21:14:34;99823.75;;;9.22;53.11
19594;BME280;9944;48.240;16.478;2023-03-19T21:18:37;99832.53;;;9.18;53.30
19594;BME280;9944;48.240;16.478;2023-03-19T21:22:41;99827.22;;;9.09;53.24
19594;BME280;9944;48.240;16.478;2023-03-19T21:26:44;99825.47;;;8.96;53.13
19594;BME280;9944;48.240;16.478;2023-03-19T21:30:49;99830.72;;;8.92;53.50
19594;BME280;9944;48.240;16.478;2023-03-19T21:34:52;99827.19;;;8.87;53.59
19594;BME280;9944;48.240;16.478;2023-03-19T21:38:56;99829.75;;;8.80;53.85
19594;BME280;9944;48.240;16.478;2023-03-19T21:43:00;99826.25;;;8.71;53.84
19594;BME280;9944;48.240;16.478;2023-03-19T21:47:09;99826.19;;;8.65;54.00
19594;BME280;9944;48.240;16.478;2023-03-19T21:51:14;99834.09;;;8.61;54.06
19594;BME280;9944;48.240;16.478;2023-03-19T21:55:18;99841.94;;;8.54;54.18
19594;BME280;9944;48.240;16.478;2023-03-19T21:59:24;99848.94;;;8.49;54.39
19594;BME280;9944;48.240;16.478;2023-03-19T22:03:30;99846.25;;;8.43;54.83
19594;BME280;9944;48.240;16.478;2023-03-19T22:07:33;99851.50;;;8.40;55.10
19594;BME280;9944;48.240;16.478;2023-03-19T22:11:38;99845.34;;;8.36;55.84